PWSweather.com
Personal Weather Stations
Station Observations
MAHIABEACH
Mahia Beach, Mahia Peninsula Hawkes Bay -NZ 4108

Mahia BeachMahia Peninsula Hawkes Bay -NZ 4108

Lat: -39.08872, Lon: 177.878209

Elevation: 72

Station Type: WS2083

http://wairoa.net/mahia/index.htm

Latest ConditionsUpdated 12:30:05 PM GMT+12:12 Monday, Mar 27, 2017
Currently Today's Max Today's Min Today's Average
Temperature 75.6°F24.2°C 75.6°F24.2°C 65.3°F18.5°C 67.9°F19.9°C
Dew Point 66.7°F19.3°C 68.2°F20.1°C 62.8°F17.1°C 64.6°F18.1°C
Winds 8.3 mph NW13.4 kmh NW 12.3 mph WNW19.8 kmh WNW - 5.6 mph 9.0 kmh
Wind Gusts 10.7 mph17.2 kmh 22.8 mph36.7 kmh - -
Humidity 74% 93% 74% 89%
Pressure 29.78 in1008.5 mb 29.95 in1014.2 mb 29.78 in1008.5 mb -
Precipitation - 0.12 in3.0 mm - -
Hour Temp Dew Point Humidity Winds Wind Gusts Pressure Precip Precip Rate Daily Precip Total
12:30 PM 75.6°F24.2°C 66.7°F19.3°C 74% 8.3 mph NW13.4 kmh NW 10.7 mph17.2 kmh 29.78 in1008.5 mb 0.00 in0.0 mm 0.00 in0.0 mm 0.12 in3.0 mm
12:15 PM 74.7°F23.7°C 67.4°F19.7°C 78% 2.4 mph NW3.9 kmh NW 7.6 mph12.2 kmh 29.79 in1008.8 mb 0.00 in0.0 mm 0.00 in0.0 mm 0.12 in3.0 mm
12:00 PM 72.3°F22.4°C 65.5°F18.6°C 79% 4.5 mph E7.2 kmh E 11.4 mph18.3 kmh 29.80 in1009.1 mb 0.00 in0.0 mm 0.00 in0.0 mm 0.12 in3.0 mm
11:45 AM 72.3°F22.4°C 65.5°F18.6°C 79% 4.5 mph E7.2 kmh E 11.4 mph18.3 kmh 29.79 in1008.8 mb 0.00 in0.0 mm 0.00 in0.0 mm 0.12 in3.0 mm
11:30 AM 72.3°F22.4°C 65.5°F18.6°C 79% 4.5 mph E7.2 kmh E 11.4 mph18.3 kmh 29.80 in1009.1 mb 0.01 in0.3 mm 0.00 in0.0 mm 0.12 in3.0 mm
11:15 AM 72.3°F22.4°C 65.5°F18.6°C 79% 5.6 mph NNE9.0 kmh NNE 13.0 mph20.9 kmh 29.80 in1009.1 mb 0.01 in0.3 mm 0.00 in0.0 mm 0.12 in3.0 mm
11:00 AM 72.9°F22.7°C 66.4°F19.1°C 80% 4.0 mph NW6.4 kmh NW 14.5 mph23.3 kmh 29.80 in1009.1 mb 0.01 in0.3 mm 0.00 in0.0 mm 0.12 in3.0 mm
10:45 AM 72.7°F22.6°C 66.2°F19.0°C 80% 6.8 mph NW10.9 kmh NW 14.5 mph23.3 kmh 29.81 in1009.5 mb 0.01 in0.3 mm 0.04 in1.0 mm 0.12 in3.0 mm
10:30 AM 72.7°F22.6°C 66.9°F19.4°C 82% 5.3 mph WNW8.5 kmh WNW 13.0 mph20.9 kmh 29.81 in1009.5 mb 0.00 in0.0 mm 0.00 in0.0 mm 0.11 in2.8 mm
10:15 AM 72.0°F22.2°C 68.2°F20.1°C 88% 6.4 mph NNW10.3 kmh NNW 11.4 mph18.3 kmh 29.81 in1009.5 mb 0.00 in0.0 mm 0.00 in0.0 mm 0.11 in2.8 mm
10:00 AM 69.6°F20.9°C 66.9°F19.4°C 91% 6.5 mph NW10.5 kmh NW 18.3 mph29.5 kmh 29.82 in1009.8 mb 0.01 in0.3 mm 0.00 in0.0 mm 0.11 in2.8 mm
09:45 AM 68.5°F20.3°C 65.8°F18.8°C 91% 5.9 mph NW9.5 kmh NW 15.9 mph25.6 kmh 29.82 in1009.8 mb 0.01 in0.3 mm 0.00 in0.0 mm 0.11 in2.8 mm
09:30 AM 68.2°F20.1°C 65.5°F18.6°C 91% 7.2 mph WNW11.6 kmh WNW 19.0 mph30.6 kmh 29.82 in1009.8 mb 0.01 in0.3 mm 0.00 in0.0 mm 0.11 in2.8 mm
09:15 AM 68.4°F20.2°C 65.7°F18.7°C 91% 12.3 mph WNW19.8 kmh WNW 22.8 mph36.7 kmh 29.82 in1009.8 mb 0.01 in0.3 mm 0.00 in0.0 mm 0.11 in2.8 mm
09:00 AM 68.4°F20.2°C 65.7°F18.7°C 91% 8.7 mph NNW14.0 kmh NNW 16.8 mph27.0 kmh 29.82 in1009.8 mb 0.02 in0.5 mm 0.00 in0.0 mm 0.09 in2.3 mm
08:45 AM 68.4°F20.2°C 65.7°F18.7°C 91% 7.2 mph NNW11.6 kmh NNW 17.4 mph28.0 kmh 29.83 in1010.2 mb 0.02 in0.5 mm 0.00 in0.0 mm 0.09 in2.3 mm
08:30 AM 68.2°F20.1°C 65.8°F18.8°C 92% 10.6 mph NW17.1 kmh NW 20.6 mph33.2 kmh 29.83 in1010.2 mb 0.02 in0.5 mm 0.00 in0.0 mm 0.09 in2.3 mm
08:15 AM 67.8°F19.9°C 65.8°F18.8°C 93% 9.4 mph NW15.1 kmh NW 20.6 mph33.2 kmh 29.83 in1010.2 mb 0.02 in0.5 mm 0.08 in2.0 mm 0.09 in2.3 mm
08:00 AM 67.5°F19.7°C 65.4°F18.6°C 93% 9.4 mph NW15.1 kmh NW 22.1 mph35.6 kmh 29.84 in1010.5 mb 0.00 in0.0 mm 0.00 in0.0 mm 0.07 in1.8 mm
07:45 AM 67.1°F19.5°C 65.0°F18.3°C 93% 8.2 mph NNW13.2 kmh NNW 17.4 mph28.0 kmh 29.84 in1010.5 mb 0.01 in0.3 mm 0.00 in0.0 mm 0.07 in1.8 mm
07:30 AM 66.9°F19.4°C 64.9°F18.3°C 93% 6.5 mph NW10.5 kmh NW 15.2 mph24.5 kmh 29.84 in1010.5 mb 0.01 in0.3 mm 0.00 in0.0 mm 0.07 in1.8 mm
07:15 AM 66.7°F19.3°C 64.7°F18.2°C 93% 4.8 mph WSW7.7 kmh WSW 13.0 mph20.9 kmh 29.84 in1010.5 mb 0.02 in0.5 mm 0.00 in0.0 mm 0.07 in1.8 mm
07:00 AM 66.7°F19.3°C 64.7°F18.2°C 93% 8.4 mph NW13.5 kmh NW 17.4 mph28.0 kmh 29.85 in1010.8 mb 0.02 in0.5 mm 0.00 in0.0 mm 0.06 in1.5 mm
06:45 AM 66.6°F19.2°C 64.2°F17.9°C 92% 6.7 mph NW10.8 kmh NW 13.0 mph20.9 kmh 29.85 in1010.8 mb 0.04 in1.0 mm 0.00 in0.0 mm 0.06 in1.5 mm
06:30 AM 66.2°F19.0°C 63.8°F17.7°C 92% 5.5 mph NW8.9 kmh NW 14.5 mph23.3 kmh 29.85 in1010.8 mb 0.04 in1.0 mm 0.08 in2.0 mm 0.06 in1.5 mm
06:15 AM 66.2°F19.0°C 63.8°F17.7°C 92% 6.0 mph NW9.7 kmh NW 13.0 mph20.9 kmh 29.86 in1011.2 mb 0.02 in0.5 mm 0.04 in1.0 mm 0.05 in1.3 mm
06:00 AM 65.8°F18.8°C 63.8°F17.7°C 93% 6.1 mph NW9.8 kmh NW 13.6 mph21.9 kmh 29.84 in1010.5 mb 0.01 in0.3 mm 0.01 in0.3 mm 0.04 in1.0 mm
05:45 AM 66.2°F19.0°C 63.8°F17.7°C 92% 6.2 mph NW10.0 kmh NW 12.1 mph19.5 kmh 29.85 in1010.8 mb 0.00 in0.0 mm 0.00 in0.0 mm 0.02 in0.5 mm
05:30 AM 66.2°F19.0°C 63.5°F17.5°C 91% 4.1 mph NW6.6 kmh NW 8.3 mph13.4 kmh 29.86 in1011.2 mb 0.02 in0.5 mm 0.00 in0.0 mm 0.02 in0.5 mm
05:15 AM 66.2°F19.0°C 63.5°F17.5°C 91% 3.2 mph WSW5.1 kmh WSW 9.8 mph15.8 kmh 29.87 in1011.5 mb 0.02 in0.5 mm 0.00 in0.0 mm 0.02 in0.5 mm
05:00 AM 66.2°F19.0°C 63.5°F17.5°C 91% 4.3 mph SW6.9 kmh SW 9.8 mph15.8 kmh 29.87 in1011.5 mb 0.02 in0.5 mm 0.00 in0.0 mm 0.02 in0.5 mm
04:45 AM 66.4°F19.1°C 63.7°F17.6°C 91% 9.0 mph NNW14.5 kmh NNW 18.3 mph29.5 kmh 29.87 in1011.5 mb 0.02 in0.5 mm 0.04 in1.0 mm 0.02 in0.5 mm
04:15 AM 66.7°F19.3°C 63.4°F17.4°C 89% 4.5 mph N7.2 kmh N 11.4 mph18.3 kmh 29.87 in1011.5 mb 0.00 in0.0 mm 0.00 in0.0 mm 0.00 in0.0 mm
04:00 AM 66.4°F19.1°C 63.1°F17.3°C 89% 4.7 mph NW7.6 kmh NW 11.4 mph18.3 kmh 29.88 in1011.9 mb 0.00 in0.0 mm 0.00 in0.0 mm 0.00 in0.0 mm
03:45 AM 66.2°F19.0°C 63.2°F17.3°C 90% 3.8 mph NW6.1 kmh NW 8.3 mph13.4 kmh 29.89 in1012.2 mb 0.00 in0.0 mm 0.00 in0.0 mm 0.00 in0.0 mm
03:30 AM 66.2°F19.0°C 63.5°F17.5°C 91% 4.4 mph NW7.1 kmh NW 9.2 mph14.8 kmh 29.89 in1012.2 mb 0.00 in0.0 mm 0.00 in0.0 mm 0.00 in0.0 mm
03:15 AM 66.2°F19.0°C 63.5°F17.5°C 91% 4.4 mph NNW7.1 kmh NNW 10.7 mph17.2 kmh 29.90 in1012.5 mb 0.00 in0.0 mm 0.00 in0.0 mm 0.00 in0.0 mm
03:00 AM 66.2°F19.0°C 63.5°F17.5°C 91% 4.3 mph N6.9 kmh N 9.8 mph15.8 kmh 29.90 in1012.5 mb 0.00 in0.0 mm 0.00 in0.0 mm 0.00 in0.0 mm
02:45 AM 66.0°F18.9°C 63.7°F17.6°C 92% 4.2 mph NW6.8 kmh NW 9.2 mph14.8 kmh 29.90 in1012.5 mb 0.00 in0.0 mm 0.00 in0.0 mm 0.00 in0.0 mm
02:30 AM 65.8°F18.8°C 62.8°F17.1°C 90% 3.8 mph NW6.1 kmh NW 9.2 mph14.8 kmh 29.91 in1012.9 mb 0.00 in0.0 mm 0.00 in0.0 mm 0.00 in0.0 mm
02:15 AM 65.8°F18.8°C 62.8°F17.1°C 90% 4.5 mph NW7.2 kmh NW 13.0 mph20.9 kmh 29.91 in1012.9 mb 0.00 in0.0 mm 0.00 in0.0 mm 0.00 in0.0 mm
02:00 AM 65.3°F18.5°C 62.9°F17.2°C 92% 4.3 mph N6.9 kmh N 9.2 mph14.8 kmh 29.91 in1012.9 mb 0.00 in0.0 mm 0.00 in0.0 mm 0.00 in0.0 mm
01:45 AM 65.3°F18.5°C 63.2°F17.3°C 93% 3.6 mph NW5.8 kmh NW 10.7 mph17.2 kmh 29.92 in1013.2 mb 0.00 in0.0 mm 0.00 in0.0 mm 0.00 in0.0 mm
01:30 AM 65.3°F18.5°C 63.2°F17.3°C 93% 2.8 mph N4.5 kmh N 8.3 mph13.4 kmh 29.92 in1013.2 mb 0.00 in0.0 mm 0.00 in0.0 mm 0.00 in0.0 mm
01:15 AM 65.3°F18.5°C 63.2°F17.3°C 93% 2.3 mph N3.7 kmh N 5.4 mph8.7 kmh 29.92 in1013.2 mb 0.00 in0.0 mm 0.00 in0.0 mm 0.00 in0.0 mm
01:00 AM 65.3°F18.5°C 63.2°F17.3°C 93% 2.0 mph N3.2 kmh N 5.4 mph8.7 kmh 29.93 in1013.5 mb 0.00 in0.0 mm 0.00 in0.0 mm 0.00 in0.0 mm
12:45 AM 66.6°F19.2°C 64.2°F17.9°C 92% 3.2 mph W5.1 kmh W 5.4 mph8.7 kmh 29.94 in1013.9 mb 0.00 in0.0 mm 0.00 in0.0 mm 0.00 in0.0 mm
12:30 AM 66.7°F19.3°C 64.4°F18.0°C 92% 4.7 mph W7.6 kmh W 9.2 mph14.8 kmh 29.94 in1013.9 mb 0.00 in0.0 mm 0.00 in0.0 mm 0.00 in0.0 mm
12:15 AM 66.7°F19.3°C 64.4°F18.0°C 92% 4.1 mph NNW6.6 kmh NNW 7.6 mph12.2 kmh 29.94 in1013.9 mb 0.00 in0.0 mm 0.00 in0.0 mm 0.00 in0.0 mm
12:00 AM 66.6°F19.2°C 64.2°F17.9°C 92% 4.5 mph NW7.2 kmh NW 9.8 mph15.8 kmh 29.95 in1014.2 mb 0.00 in0.0 mm 0.00 in0.0 mm 0.00 in0.0 mm